createdAt,value
2023-03-23T16:03:04.660Z,21.10
2023-03-23T16:10:07.699Z,20.84
2023-03-23T16:17:11.827Z,20.76
2023-03-23T16:24:13.427Z,20.28
2023-03-23T16:31:15.459Z,20.32
2023-03-23T16:38:17.544Z,20.31
2023-03-23T16:45:19.431Z,20.28
2023-03-23T16:52:20.978Z,20.34
2023-03-23T16:59:22.499Z,20.03
2023-03-23T17:06:24.171Z,19.81
2023-03-23T17:13:27.726Z,19.55
2023-03-23T17:20:29.301Z,19.35
2023-03-23T17:27:31.116Z,19.27
2023-03-23T17:34:32.665Z,19.08
2023-03-23T17:41:34.187Z,19.00
2023-03-23T17:48:36.042Z,18.91
2023-03-23T17:55:37.645Z,18.39
2023-03-23T18:02:39.362Z,18.41
2023-03-23T18:09:41.142Z,18.19
2023-03-23T18:16:42.712Z,18.18
2023-03-23T18:23:53.197Z,18.00
2023-03-23T18:31:07.048Z,18.02
2023-03-23T18:38:08.593Z,17.96
2023-03-23T18:45:10.384Z,17.90
2023-03-23T18:52:12.151Z,17.83
2023-03-23T18:59:13.754Z,17.74
2023-03-23T19:06:25.446Z,17.71
2023-03-23T19:13:28.368Z,17.46
2023-03-23T19:34:39.475Z,17.60
2023-03-23T19:41:41.865Z,17.44
2023-03-23T19:48:43.519Z,17.43
2023-03-23T19:55:45.470Z,17.24
2023-03-23T20:02:47.390Z,17.23
2023-03-23T20:09:49.718Z,17.20
2023-03-23T20:16:52.775Z,17.25
2023-03-23T20:23:55.950Z,17.20
2023-03-23T20:31:20.933Z,17.28
2023-03-23T20:38:25.307Z,17.17
2023-03-23T20:45:26.979Z,17.13
2023-03-23T20:52:28.633Z,17.16
2023-03-23T20:59:30.396Z,17.12
2023-03-23T21:06:32.889Z,17.16
2023-03-23T21:13:34.465Z,17.14
2023-03-23T21:20:36.254Z,17.09
2023-03-23T21:27:37.982Z,16.92
2023-03-23T21:34:39.560Z,16.97
2023-03-23T21:41:41.445Z,16.87
2023-03-23T21:48:50.811Z,16.58
2023-03-23T21:55:52.539Z,16.63
2023-03-23T22:02:54.290Z,16.48
2023-03-23T22:09:56.515Z,16.46
2023-03-23T22:16:58.141Z,16.24
2023-03-23T22:24:00.386Z,16.17
2023-03-23T22:31:06.147Z,16.22
2023-03-23T22:38:07.726Z,16.28
2023-03-23T22:45:09.614Z,16.28
2023-03-23T22:52:11.279Z,16.12
2023-03-23T22:59:13.373Z,15.95
2023-03-23T23:06:16.520Z,15.91
2023-03-23T23:13:18.376Z,16.01
2023-03-23T23:20:19.923Z,15.99
2023-03-23T23:27:21.603Z,15.90
2023-03-23T23:34:23.161Z,15.84
2023-03-23T23:41:24.784Z,15.78
2023-03-23T23:48:26.320Z,15.60
2023-03-23T23:55:27.996Z,15.52
